Hauptseite
METAR-TAF:

METAR-TAF

Flughäfen :

Frederick Municipal Airport

Frederick, Maryland, Vereinigte Staaten

Breite: 39-25-03N, Länge: 077-22-28W, Höhe: 92 m

Beobachtung

Neuester Wetterbericht von vor 17 Minuten, um 02:20 UTC
Wind 7 kt aus West/Nordwest
Temperatur 3°C
Luftfeuchtigkeit 56%
Luftdruck 1024 hPa
Sichtweite: 16.1 km
Himmel klar

METAR: KFDK 160220Z AUTO 29007KT 10SM CLR 03/M05 A3023 RMK AO2

Zeit: 21:37 (02:37 UTC)


TAF: fehlend

Wetterbeobachtungen und Prognosen von mehr als 4000 Flughäfen (METAR und TAF Bericht).

Die verfügbaren Stationen werden durch gelbe und rote Markierungen auf der Karte dargestellt.

Führen Sie die Maus auf sie, um den Namen der Station zu sehen.

Darauf klicken, um die Beobachtung von Wetterbeobachtungen und Prognosen zu sehen.

Um die Karte zu ändern : klicken Sie auf den grünen Tasten mit einem schwarzen Kreuz Zum Vergrößern, auf den grünen Button mit einem Gedankenstrich zu verkleinern, oder auf die grünen Pfeile für benachbarte Karten.


METAR-TAF: